Terminal Aerodrome Forecast
Issued by NWS Pueblo, CO

Home | Current Version | Previous Version | Text Only | Print | Product List | Glossary On
Versions: 1 2 3 4 5 6 7 8 9 10 11 12 13 14 15 16 17 18 19
000
FTUS45 KPUB 311720
TAFPUB
TAF
KPUB 311720Z 3118/0118 VRB04KT P6SM FEW100
     FM311900 12007KT P6SM SCT100
     FM312200 10010KT P6SM VCTS SCT070CB BKN100
     FM010400 07007KT P6SM FEW060 SCT250
     FM010700 VRB04KT P6SM SCT020 BKN040
     FM011600 VRB05KT P6SM SCT040 SCT200=

USA.gov is the U.S. government's official web portal to all federal, state and local government web resources and services.